createdAt,value
2022-08-05T00:00:16.113Z,100624.38
2022-08-05T00:02:43.885Z,100629.91
2022-08-05T00:06:01.767Z,100623.81
2022-08-05T00:08:05.209Z,100631.03
2022-08-05T00:10:51.506Z,100630.34
2022-08-05T00:13:19.786Z,100629.59
2022-08-05T00:15:54.947Z,100632.03
2022-08-05T00:18:23.001Z,100638.53
2022-08-05T00:20:49.687Z,100639.38
2022-08-05T00:23:16.299Z,100639.53
2022-08-05T00:25:45.879Z,100642.22
2022-08-05T00:28:13.028Z,100643.06
2022-08-05T00:30:44.151Z,100637.25
2022-08-05T00:34:42.510Z,100643.47
2022-08-05T00:36:16.029Z,100632.25
2022-08-05T00:38:44.552Z,100639.91
2022-08-05T00:41:11.816Z,100637.31
2022-08-05T00:43:46.468Z,100641.84
2022-08-05T00:46:15.225Z,100640.16
2022-08-05T00:48:50.283Z,100644.69
2022-08-05T00:51:51.954Z,100648.50
2022-08-05T00:54:05.526Z,100640.44
2022-08-05T00:56:32.010Z,100646.81
2022-08-05T00:58:59.353Z,100643.28
2022-08-05T01:01:48.135Z,100645.22
2022-08-05T01:04:14.541Z,100651.69
2022-08-05T01:06:46.701Z,100649.16
2022-08-05T01:09:15.658Z,100657.06
2022-08-05T01:11:49.251Z,100656.38
2022-08-05T01:14:28.049Z,100648.41
2022-08-05T01:17:03.118Z,100642.06
2022-08-05T01:20:00.801Z,100644.88
2022-08-05T01:22:38.011Z,100642.44
2022-08-05T01:25:39.924Z,100647.84
2022-08-05T01:28:17.645Z,100649.81
2022-08-05T01:30:53.702Z,100641.88
2022-08-05T01:33:26.386Z,100647.41
2022-08-05T01:35:57.504Z,100643.03
2022-08-05T01:38:29.114Z,100648.38
2022-08-05T01:40:59.029Z,100645.22
2022-08-05T01:43:28.301Z,100649.88
2022-08-05T01:45:56.997Z,100645.38
2022-08-05T01:48:24.773Z,100648.19
2022-08-05T01:50:52.125Z,100654.66
2022-08-05T01:53:37.395Z,100649.28
2022-08-05T01:56:10.958Z,100645.06
2022-08-05T01:58:45.084Z,100641.66
2022-08-05T02:01:14.555Z,100637.38
2022-08-05T02:03:46.355Z,100641.91
2022-08-05T02:06:37.508Z,100640.22
2022-08-05T02:08:59.865Z,100639.47
2022-08-05T02:11:36.416Z,100649.53
2022-08-05T02:14:13.117Z,100644.84
2022-08-05T02:16:46.439Z,100654.91
2022-08-05T02:19:33.493Z,100657.59
2022-08-05T02:22:05.604Z,100653.22
2022-08-05T02:24:37.570Z,100659.69
2022-08-05T02:27:09.831Z,100665.19
2022-08-05T02:30:00.105Z,100657.13
2022-08-05T02:32:31.563Z,100656.16
2022-08-05T02:35:01.924Z,100658.25
2022-08-05T02:37:32.082Z,100662.75
2022-08-05T02:40:00.558Z,100658.50
2022-08-05T02:42:31.934Z,100661.31
2022-08-05T02:45:04.580Z,100655.94
2022-08-05T02:47:58.630Z,100664.16
2022-08-05T02:50:21.673Z,100664.41
2022-08-05T02:52:48.724Z,100670.03
2022-08-05T02:55:17.482Z,100667.50
2022-08-05T02:58:19.673Z,100668.44
2022-08-05T03:00:34.929Z,100667.59
2022-08-05T03:03:03.549Z,100667.50
2022-08-05T03:06:55.156Z,100670.28
2022-08-05T03:08:26.933Z,100654.44
2022-08-05T03:11:53.436Z,100662.63
2022-08-05T03:13:51.465Z,100658.09
2022-08-05T03:16:31.577Z,100652.88
2022-08-05T03:18:58.945Z,100660.19
2022-08-05T03:21:28.673Z,100654.09
2022-08-05T03:23:56.935Z,100661.31
2022-08-05T03:26:31.953Z,100658.75
2022-08-05T03:28:59.320Z,100652.41
2022-08-05T03:31:56.275Z,100663.13
2022-08-05T03:34:13.982Z,100660.72
2022-08-05T03:36:40.728Z,100660.84
2022-08-05T03:39:07.682Z,100660.84
2022-08-05T03:41:38.694Z,100661.97
2022-08-05T03:44:13.543Z,100660.25
2022-08-05T03:46:46.726Z,100657.69
2022-08-05T03:49:14.936Z,100660.50
2022-08-05T03:52:39.167Z,100656.72
2022-08-05T03:55:51.937Z,100672.94
2022-08-05T03:57:41.521Z,100670.25
2022-08-05T04:00:11.312Z,100676.63
2022-08-05T04:02:52.037Z,100665.88
2022-08-05T04:05:33.142Z,100671.13
2022-08-05T04:08:02.024Z,100667.81
2022-08-05T04:10:37.156Z,100668.78
2022-08-05T04:13:05.948Z,100672.47
2022-08-05T04:15:36.444Z,100677.84
2022-08-05T04:18:03.918Z,100679.53
2022-08-05T04:20:35.331Z,100675.84
2022-08-05T04:23:02.090Z,100674.94
2022-08-05T04:25:57.519Z,100673.81
2022-08-05T04:28:15.118Z,100665.75
2022-08-05T04:30:44.235Z,100667.72
2022-08-05T04:33:10.776Z,100667.81
2022-08-05T04:36:16.457Z,100665.25
2022-08-05T04:38:39.448Z,100671.47
2022-08-05T04:41:07.359Z,100667.94
2022-08-05T04:43:36.402Z,100680.53
2022-08-05T04:46:04.042Z,100669.78
2022-08-05T04:48:31.981Z,100664.41
2022-08-05T04:51:01.865Z,100667.09
2022-08-05T04:53:33.649Z,100670.47
2022-08-05T04:56:33.934Z,100664.03
2022-08-05T04:58:49.041Z,100673.81
2022-08-05T05:01:15.638Z,100679.31
2022-08-05T05:04:00.526Z,100674.31
2022-08-05T05:06:38.796Z,100671.72
2022-08-05T05:09:13.285Z,100680.63
2022-08-05T05:11:53.170Z,100679.09
2022-08-05T05:14:28.205Z,100687.00
2022-08-05T05:16:58.972Z,100691.66
2022-08-05T05:19:27.457Z,100704.19
2022-08-05T05:22:22.541Z,100700.81
2022-08-05T05:24:56.758Z,100693.84
2022-08-05T05:27:44.676Z,100704.59
2022-08-05T05:30:15.633Z,100703.75
2022-08-05T05:32:56.955Z,100709.84
2022-08-05T05:35:27.703Z,100713.50
2022-08-05T05:37:59.511Z,100713.50
2022-08-05T05:40:29.050Z,100726.22
2022-08-05T05:42:56.703Z,100729.59
2022-08-05T05:45:24.770Z,100722.53
2022-08-05T05:48:06.442Z,100732.28
2022-08-05T05:50:35.390Z,100733.28
2022-08-05T05:53:21.202Z,100732.03
2022-08-05T05:55:51.394Z,100734.00
2022-08-05T05:58:30.209Z,100738.50
2022-08-05T06:01:13.011Z,100748.38
2022-08-05T06:04:01.646Z,100754.59
2022-08-05T06:06:31.067Z,100756.34
2022-08-05T06:08:59.431Z,100752.81
2022-08-05T06:11:26.033Z,100759.03
2022-08-05T06:13:54.099Z,100759.88
2022-08-05T06:16:31.268Z,100774.28
2022-08-05T06:19:00.796Z,100782.19
2022-08-05T06:21:36.720Z,100783.88
2022-08-05T06:24:07.728Z,100792.78
2022-08-05T06:26:38.131Z,100793.53
2022-08-05T06:29:06.991Z,100785.47
2022-08-05T06:31:51.882Z,100792.44
2022-08-05T06:34:20.043Z,100802.34
2022-08-05T06:36:56.871Z,100805.00
2022-08-05T06:39:27.289Z,100803.19
2022-08-05T06:41:55.284Z,100813.06
2022-08-05T06:44:22.356Z,100818.44
2022-08-05T06:46:51.140Z,100820.97
2022-08-05T06:49:18.829Z,100820.84
2022-08-05T06:51:47.974Z,100814.41
2022-08-05T06:54:18.203Z,100816.47
2022-08-05T06:56:54.794Z,100824.44
2022-08-05T06:59:38.812Z,100819.94
2022-08-05T07:02:08.848Z,100826.16
2022-08-05T07:04:35.694Z,100832.38
2022-08-05T07:07:03.118Z,100828.91
2022-08-05T07:09:40.507Z,100836.03
2022-08-05T07:12:11.070Z,100836.03
2022-08-05T07:14:37.499Z,100832.38
2022-08-05T07:17:59.467Z,100842.84
2022-08-05T07:20:31.709Z,100842.00
2022-08-05T07:22:37.813Z,100843.72
2022-08-05T07:25:22.922Z,100846.25
2022-08-05T07:27:58.318Z,100850.66
2022-08-05T07:30:32.455Z,100850.78
2022-08-05T07:32:59.584Z,100848.22
2022-08-05T07:36:03.388Z,100850.66
2022-08-05T07:38:26.485Z,100860.28
2022-08-05T07:41:00.300Z,100865.78
2022-08-05T07:43:32.571Z,100864.44
2022-08-05T07:46:01.616Z,100870.41
2022-08-05T07:49:02.152Z,100876.19
2022-08-05T07:51:23.765Z,100875.09
2022-08-05T07:54:02.492Z,100887.28
2022-08-05T07:57:01.306Z,100879.34
2022-08-05T07:59:16.820Z,100884.44
2022-08-05T08:01:51.672Z,100884.97
2022-08-05T08:04:37.375Z,100896.31
2022-08-05T08:07:05.564Z,100890.94
2022-08-05T08:09:34.068Z,100895.19
2022-08-05T08:12:09.133Z,100894.94
2022-08-05T08:14:42.637Z,100898.88
2022-08-05T08:17:16.143Z,100904.75
2022-08-05T08:20:23.441Z,100917.28
2022-08-05T08:22:30.878Z,100911.66
2022-08-05T08:25:03.111Z,100915.09
2022-08-05T08:27:40.402Z,100923.41
2022-08-05T08:30:28.520Z,100926.81
2022-08-05T08:33:08.246Z,100927.53
2022-08-05T08:35:40.887Z,100933.75
2022-08-05T08:38:08.523Z,100950.75
2022-08-05T08:40:39.461Z,100949.78
2022-08-05T08:45:19.090Z,100945.63
2022-08-05T08:45:56.386Z,100950.63
2022-08-05T08:48:41.600Z,100960.63
2022-08-05T08:51:54.492Z,100954.53
2022-08-05T08:53:58.338Z,100969.56
2022-08-05T08:56:27.342Z,100962.97
2022-08-05T08:58:54.400Z,100961.50
2022-08-05T09:01:22.221Z,100966.97
2022-08-05T09:03:54.258Z,100967.59
2022-08-05T09:06:24.043Z,100967.59
2022-08-05T09:08:54.943Z,100982.00
2022-08-05T09:11:50.770Z,100971.72
2022-08-05T09:14:56.575Z,100973.47
2022-08-05T09:16:59.592Z,100972.34
2022-08-05T09:19:27.953Z,100975.88
2022-08-05T09:22:31.090Z,100981.00
2022-08-05T09:24:57.836Z,100986.38
2022-08-05T09:28:04.345Z,100984.44
2022-08-05T09:30:23.371Z,100983.44
2022-08-05T09:32:52.426Z,100981.50
2022-08-05T09:35:27.127Z,100981.50
2022-08-05T09:38:17.324Z,100990.28
2022-08-05T09:40:44.634Z,100983.94
2022-08-05T09:43:41.816Z,100989.44
2022-08-05T09:46:27.427Z,100997.38
2022-08-05T09:49:08.054Z,101007.16
2022-08-05T09:51:43.206Z,101003.47
2022-08-05T09:54:10.162Z,101011.53
2022-08-05T09:56:38.343Z,101009.84
2022-08-05T09:59:07.635Z,101008.84
2022-08-05T10:01:35.595Z,100999.81
2022-08-05T10:04:10.573Z,101000.78
2022-08-05T10:06:37.711Z,101013.25
2022-08-05T10:09:27.500Z,101009.59
2022-08-05T10:11:55.414Z,101020.19
2022-08-05T10:14:23.825Z,101011.28
2022-08-05T10:16:54.293Z,101010.44
2022-08-05T10:19:23.673Z,101007.63
2022-08-05T10:22:09.185Z,101014.72
2022-08-05T10:24:42.353Z,101020.81
2022-08-05T10:27:13.007Z,101014.59
2022-08-05T10:30:41.247Z,101026.19
2022-08-05T10:32:55.079Z,101017.16
2022-08-05T10:35:17.856Z,101018.88
2022-08-05T10:37:45.568Z,101017.88
2022-08-05T10:40:28.159Z,101038.38
2022-08-05T10:43:01.190Z,101033.75
2022-08-05T10:45:40.111Z,101044.50
2022-08-05T10:48:34.458Z,101040.00
2022-08-05T10:51:21.649Z,101042.66
2022-08-05T10:53:55.395Z,101042.66
2022-08-05T10:56:25.986Z,101046.09
2022-08-05T10:59:12.765Z,101051.34
2022-08-05T11:02:06.870Z,101044.13
2022-08-05T11:04:43.039Z,101049.50
2022-08-05T11:07:13.046Z,101039.59
2022-08-05T11:09:46.541Z,101051.94
2022-08-05T11:12:41.911Z,101059.16
2022-08-05T11:15:20.040Z,101054.53
2022-08-05T11:17:59.624Z,101054.53
2022-08-05T11:20:34.226Z,101056.22
2022-08-05T11:23:33.255Z,101056.22
2022-08-05T11:26:28.503Z,101061.59
2022-08-05T11:29:05.184Z,101057.09
2022-08-05T11:31:57.685Z,101048.03
2022-08-05T11:34:51.858Z,101061.38
2022-08-05T11:38:29.692Z,101064.91
2022-08-05T11:41:01.370Z,101073.81
2022-08-05T11:44:01.084Z,101078.34
2022-08-05T11:46:33.438Z,101075.50
2022-08-05T11:49:02.658Z,101078.22
2022-08-05T11:51:44.869Z,101082.63
2022-08-05T11:54:23.204Z,101084.31
2022-08-05T11:57:07.554Z,101083.34
2022-08-05T11:59:49.949Z,101083.34
2022-08-05T12:02:30.652Z,101088.72
2022-08-05T12:05:00.533Z,101077.00
2022-08-05T12:08:03.797Z,101090.31
2022-08-05T12:10:22.261Z,101089.47
2022-08-05T12:12:59.829Z,101080.53
2022-08-05T12:15:38.419Z,101096.53
2022-08-05T12:18:10.822Z,101091.16
2022-08-05T12:20:39.250Z,101104.50
2022-08-05T12:23:09.011Z,101097.28
2022-08-05T12:25:49.140Z,101099.97
2022-08-05T12:28:32.812Z,101090.19
2022-08-05T12:31:01.929Z,101098.97
2022-08-05T12:33:36.679Z,101096.28
2022-08-05T12:36:08.202Z,101094.59
2022-08-05T12:38:36.912Z,101107.06
2022-08-05T12:41:12.453Z,101097.16
2022-08-05T12:43:54.846Z,101104.25
2022-08-05T12:46:28.777Z,101120.16
2022-08-05T12:48:57.403Z,101111.22
2022-08-05T12:52:10.797Z,101102.31
2022-08-05T12:54:16.685Z,101111.22
2022-08-05T12:56:51.632Z,101106.59
2022-08-05T12:59:27.775Z,101105.59
2022-08-05T13:02:11.287Z,101117.22
2022-08-05T13:04:41.655Z,101118.06
2022-08-05T13:07:41.391Z,101123.34
2022-08-05T13:10:11.126Z,101117.97
2022-08-05T13:12:42.656Z,101115.97
2022-08-05T13:15:24.439Z,101121.25
2022-08-05T13:18:02.680Z,101106.97
2022-08-05T13:20:34.203Z,101122.97
2022-08-05T13:23:00.793Z,101124.78
2022-08-05T13:25:52.366Z,101124.66
2022-08-05T13:28:14.281Z,101129.78
2022-08-05T13:30:42.088Z,101125.25
2022-08-05T13:33:08.561Z,101128.84
2022-08-05T13:35:43.067Z,101125.16
2022-08-05T13:38:20.247Z,101125.16
2022-08-05T13:40:57.900Z,101124.16
2022-08-05T13:43:24.837Z,101125.00
2022-08-05T13:46:13.359Z,101126.84
2022-08-05T13:48:57.194Z,101142.00
2022-08-05T13:51:29.038Z,101140.19
2022-08-05T13:53:56.468Z,101138.47
2022-08-05T13:56:24.605Z,101128.56
2022-08-05T13:58:53.355Z,101132.97
2022-08-05T14:01:27.474Z,101137.38
2022-08-05T14:04:08.334Z,101147.13
2022-08-05T14:06:34.847Z,101142.50
2022-08-05T14:09:03.878Z,101137.22
2022-08-05T14:12:04.282Z,101137.13
2022-08-05T14:14:25.461Z,101142.50
2022-08-05T14:16:57.546Z,101144.22
2022-08-05T14:19:24.074Z,101144.81
2022-08-05T14:22:09.279Z,101146.66
2022-08-05T14:24:38.462Z,101139.44
2022-08-05T14:27:17.448Z,101151.19
2022-08-05T14:29:45.311Z,101155.56
2022-08-05T14:32:27.177Z,101143.81
2022-08-05T14:34:54.640Z,101147.41
2022-08-05T14:37:24.175Z,101146.41
2022-08-05T14:40:11.126Z,101138.34
2022-08-05T14:42:40.954Z,101140.03
2022-08-05T14:45:08.972Z,101150.78
2022-08-05T14:48:04.006Z,101147.13
2022-08-05T14:50:23.208Z,101144.44
2022-08-05T14:52:56.845Z,101141.63
2022-08-05T14:55:25.871Z,101155.09
2022-08-05T14:57:56.281Z,101151.41
2022-08-05T15:00:28.135Z,101159.38
2022-08-05T15:02:58.190Z,101159.22
2022-08-05T15:05:29.539Z,101139.41
2022-08-05T15:08:06.286Z,101162.66
2022-08-05T15:10:38.880Z,101167.06
2022-08-05T15:13:06.089Z,101155.44
2022-08-05T15:15:54.365Z,101155.44
2022-08-05T15:18:24.094Z,101145.38
2022-08-05T15:20:50.917Z,101133.66
2022-08-05T15:23:17.976Z,101145.13
2022-08-05T15:25:52.168Z,101152.34
2022-08-05T15:28:20.976Z,101155.91
2022-08-05T15:30:53.137Z,101148.69
2022-08-05T15:33:56.940Z,101144.03
2022-08-05T15:36:16.776Z,101144.78
2022-08-05T15:38:46.423Z,101151.13
2022-08-05T15:41:23.209Z,101145.63
2022-08-05T15:43:51.846Z,101143.78
2022-08-05T15:46:20.997Z,101147.34
2022-08-05T15:48:58.611Z,101159.81
2022-08-05T15:52:13.573Z,101164.22
2022-08-05T15:54:16.541Z,101156.84
2022-08-05T15:56:43.680Z,101156.84
2022-08-05T15:59:10.573Z,101165.78
2022-08-05T16:01:52.815Z,101158.56
2022-08-05T16:04:20.385Z,101169.22
2022-08-05T16:06:53.818Z,101169.06
2022-08-05T16:09:22.653Z,101162.72
2022-08-05T16:11:52.751Z,101162.72
2022-08-05T16:14:19.666Z,101164.44
2022-08-05T16:16:46.483Z,101175.91
2022-08-05T16:19:19.207Z,101163.34
2022-08-05T16:22:03.305Z,101167.84
2022-08-05T16:24:39.730Z,101172.97
2022-08-05T16:27:07.772Z,101174.69
2022-08-05T16:29:37.551Z,101173.97
2022-08-05T16:32:04.721Z,101170.16
2022-08-05T16:34:31.171Z,101160.25
2022-08-05T16:36:57.671Z,101168.31
2022-08-05T16:40:06.643Z,101162.81
2022-08-05T16:42:18.478Z,101168.19
2022-08-05T16:44:54.260Z,101173.47
2022-08-05T16:47:28.754Z,101171.63
2022-08-05T16:50:03.706Z,101172.38
2022-08-05T16:52:32.551Z,101166.09
2022-08-05T16:55:01.339Z,101169.53
2022-08-05T16:57:53.361Z,101171.38
2022-08-05T17:00:34.055Z,101168.53
2022-08-05T17:03:01.432Z,101164.91
2022-08-05T17:05:28.438Z,101160.38
2022-08-05T17:07:55.221Z,101166.47
2022-08-05T17:10:30.331Z,101164.78
2022-08-05T17:12:57.746Z,101159.25
2022-08-05T17:15:24.552Z,101168.06
2022-08-05T17:17:56.181Z,101162.69
2022-08-05T17:20:24.976Z,101160.97
2022-08-05T17:22:55.132Z,101181.38
2022-08-05T17:25:22.553Z,101166.13
2022-08-05T17:28:02.586Z,101176.88
2022-08-05T17:30:29.186Z,101188.38
2022-08-05T17:32:55.708Z,101180.19
2022-08-05T17:35:22.304Z,101177.47
2022-08-05T17:37:49.293Z,101175.63
2022-08-05T17:40:18.374Z,101180.88
2022-08-05T17:42:51.878Z,101187.13
2022-08-05T17:45:22.820Z,101182.59
2022-08-05T17:47:54.433Z,101187.13
2022-08-05T17:50:27.803Z,101184.44
2022-08-05T17:52:55.897Z,101186.16
2022-08-05T17:55:27.211Z,101187.84
2022-08-05T17:58:01.810Z,101181.47
2022-08-05T18:00:29.853Z,101192.25
2022-08-05T18:02:56.781Z,101192.16
2022-08-05T18:05:23.687Z,101193.00
2022-08-05T18:07:54.665Z,101195.53
2022-08-05T18:10:23.388Z,101196.41
2022-08-05T18:12:49.975Z,101202.53
2022-08-05T18:15:16.499Z,101201.66
2022-08-05T18:18:00.352Z,101198.13
2022-08-05T18:20:31.948Z,101207.16
2022-08-05T18:23:00.676Z,101200.06
2022-08-05T18:25:39.224Z,101199.97
2022-08-05T18:28:06.395Z,101196.13
2022-08-05T18:30:33.087Z,101206.06
2022-08-05T18:33:01.693Z,101212.31
2022-08-05T18:36:00.723Z,101208.66
2022-08-05T18:38:19.156Z,101206.06
2022-08-05T18:41:53.233Z,101215.84
2022-08-05T18:43:43.098Z,101218.53
2022-08-05T18:46:15.524Z,101222.22
2022-08-05T18:48:48.334Z,101224.91
2022-08-05T18:52:04.847Z,101220.38
2022-08-05T18:54:05.805Z,101228.47
2022-08-05T18:56:32.452Z,101225.06
2022-08-05T18:59:00.857Z,101228.72
2022-08-05T19:01:33.302Z,101226.91
2022-08-05T19:04:24.029Z,101225.31
2022-08-05T19:06:50.926Z,101223.59
2022-08-05T19:09:17.383Z,101229.84
2022-08-05T19:12:00.611Z,101239.88
2022-08-05T19:14:52.291Z,101248.09
2022-08-05T19:17:15.640Z,101244.53
2022-08-05T19:19:46.639Z,101252.75
2022-08-05T19:22:17.046Z,101250.03
2022-08-05T19:24:54.140Z,101246.59
2022-08-05T19:27:22.846Z,101255.69
2022-08-05T19:29:49.626Z,101246.88
2022-08-05T19:32:16.095Z,101253.25
2022-08-05T19:34:54.275Z,101257.06
2022-08-05T19:37:22.219Z,101264.25
2022-08-05T19:39:57.267Z,101266.94
2022-08-05T19:42:34.981Z,101273.47
2022-08-05T19:45:05.945Z,101278.00
2022-08-05T19:47:32.835Z,101275.50
2022-08-05T19:50:02.076Z,101287.25
2022-08-05T19:52:31.458Z,101291.16
2022-08-05T19:55:00.469Z,101295.84
2022-08-05T19:57:46.465Z,101294.25
2022-08-05T20:00:14.057Z,101300.72
2022-08-05T20:02:40.509Z,101307.09
2022-08-05T20:05:16.569Z,101317.13
2022-08-05T20:07:55.013Z,101315.41
2022-08-05T20:10:24.531Z,101320.94
2022-08-05T20:12:51.874Z,101326.41
2022-08-05T20:15:48.058Z,101331.19
2022-08-05T20:18:10.150Z,101330.47
2022-08-05T20:20:56.251Z,101328.88
2022-08-05T20:23:23.492Z,101335.34
2022-08-05T20:25:52.186Z,101340.97
2022-08-05T20:28:18.965Z,101340.13
2022-08-05T20:30:45.453Z,101344.63
2022-08-05T20:33:14.358Z,101337.78
2022-08-05T20:35:45.741Z,101341.56
2022-08-05T20:38:20.181Z,101342.56
2022-08-05T20:40:55.522Z,101357.94
2022-08-05T20:43:57.960Z,101350.00
2022-08-05T20:46:09.715Z,101354.78
2022-08-05T20:48:36.504Z,101358.19
2022-08-05T20:51:08.344Z,101352.94
2022-08-05T20:53:40.702Z,101353.78
2022-08-05T20:56:09.590Z,101346.72
2022-08-05T20:58:36.960Z,101352.09
2022-08-05T21:01:03.756Z,101357.72
2022-08-05T21:03:30.632Z,101351.56
2022-08-05T21:06:01.539Z,101351.09
2022-08-05T21:08:41.302Z,101344.97
2022-08-05T21:11:11.788Z,101339.94
2022-08-05T21:13:55.666Z,101345.56
2022-08-05T21:16:29.793Z,101347.41
2022-08-05T21:18:57.223Z,101345.78
2022-08-05T21:21:27.454Z,101358.63
2022-08-05T21:24:12.971Z,101362.16
2022-08-05T21:26:41.466Z,101359.59
2022-08-05T21:29:10.051Z,101358.94
2022-08-05T21:31:41.372Z,101353.81
2022-08-05T21:34:08.495Z,101351.47
2022-08-05T21:36:37.177Z,101349.72
2022-08-05T21:39:03.890Z,101352.44
2022-08-05T21:41:32.984Z,101359.88
2022-08-05T21:44:04.137Z,101361.72
2022-08-05T21:46:31.868Z,101355.38
2022-08-05T21:49:00.858Z,101363.53
2022-08-05T21:52:21.625Z,101368.06
2022-08-05T21:54:13.961Z,101372.59
2022-08-05T21:56:44.561Z,101365.47
2022-08-05T21:59:24.307Z,101368.41
2022-08-05T22:01:54.628Z,101372.19
2022-08-05T22:04:21.230Z,101378.56
2022-08-05T22:06:52.543Z,101385.84
2022-08-05T22:09:20.954Z,101379.72
2022-08-05T22:11:48.377Z,101386.22
2022-08-05T22:14:35.613Z,101382.53
2022-08-05T22:17:06.550Z,101388.03
2022-08-05T22:20:00.424Z,101383.00
2022-08-05T22:22:28.060Z,101378.72
2022-08-05T22:24:56.136Z,101381.50
2022-08-05T22:27:22.920Z,101389.56
2022-08-05T22:29:49.397Z,101384.34
2022-08-05T22:32:23.056Z,101387.97
2022-08-05T22:34:50.616Z,101379.41
2022-08-05T22:37:17.102Z,101375.00
2022-08-05T22:39:44.893Z,101376.19
2022-08-05T22:42:25.463Z,101378.00
2022-08-05T22:44:56.634Z,101381.56
2022-08-05T22:47:29.327Z,101379.97
2022-08-05T22:50:23.593Z,101381.91
2022-08-05T22:52:44.374Z,101387.41
2022-08-05T22:55:19.180Z,101379.66
2022-08-05T22:57:46.762Z,101383.25
2022-08-05T23:00:18.299Z,101384.09
2022-08-05T23:02:49.488Z,101384.41
2022-08-05T23:05:16.997Z,101386.38
2022-08-05T23:07:49.593Z,101383.69
2022-08-05T23:10:20.317Z,101391.97
2022-08-05T23:12:47.873Z,101384.88
2022-08-05T23:15:18.738Z,101389.50
2022-08-05T23:18:00.903Z,101389.63
2022-08-05T23:20:30.944Z,101385.09
2022-08-05T23:22:58.484Z,101390.69
2022-08-05T23:25:53.157Z,101396.91
2022-08-05T23:28:12.990Z,101397.03
2022-08-05T23:30:43.710Z,101404.22
2022-08-05T23:33:22.140Z,101412.41
2022-08-05T23:35:55.866Z,101398.97
2022-08-05T23:38:23.320Z,101401.84
2022-08-05T23:40:50.839Z,101408.91
2022-08-05T23:43:25.778Z,101401.19
2022-08-05T23:46:19.993Z,101400.34
2022-08-05T23:49:00.790Z,101400.47
2022-08-05T23:51:31.061Z,101405.72
2022-08-05T23:54:01.101Z,101399.72
2022-08-05T23:56:27.953Z,101391.78
2022-08-05T23:58:54.414Z,101394.69
